createdAt,value
2019-04-13T00:01:55.707Z,99734.61
2019-04-13T00:04:34.176Z,99721.50
2019-04-13T00:07:05.023Z,99723.19
2019-04-13T00:09:37.005Z,99715.14
2019-04-13T00:12:18.136Z,99730.81
2019-04-13T00:14:48.822Z,99733.77
2019-04-13T00:17:21.879Z,99722.77
2019-04-13T00:19:52.830Z,99729.52
2019-04-13T00:22:24.667Z,99725.30
2019-04-13T00:24:56.954Z,99721.03
2019-04-13T00:27:29.983Z,99722.74
2019-04-13T00:30:03.107Z,99720.57
2019-04-13T00:32:34.909Z,99720.16
2019-04-13T00:35:05.475Z,99717.20
2019-04-13T00:37:35.988Z,99726.95
2019-04-13T00:40:06.966Z,99721.83
2019-04-13T00:42:37.307Z,99714.66
2019-04-13T00:45:07.784Z,99724.85
2019-04-13T00:47:38.125Z,99721.84
2019-04-13T00:50:08.888Z,99720.99
2019-04-13T00:52:39.449Z,99734.53
2019-04-13T00:55:09.934Z,99731.55
2019-04-13T00:57:40.517Z,99711.66
2019-04-13T01:00:11.065Z,99704.05
2019-04-13T01:02:41.598Z,99711.25
2019-04-13T01:05:12.124Z,99710.83
2019-04-13T01:07:42.760Z,99707.41
2019-04-13T01:10:13.318Z,99708.23
2019-04-13T01:12:43.777Z,99707.00
2019-04-13T01:15:14.408Z,99708.67
2019-04-13T01:17:45.000Z,99724.73
2019-04-13T01:20:15.641Z,99712.46
2019-04-13T01:22:46.091Z,99726.76
2019-04-13T01:25:16.681Z,99725.51
2019-04-13T01:27:47.097Z,99713.25
2019-04-13T01:30:17.670Z,99709.81
2019-04-13T01:32:48.253Z,99720.38
2019-04-13T01:35:18.884Z,99729.71
2019-04-13T01:37:49.353Z,99740.27
2019-04-13T01:40:20.043Z,99719.52
2019-04-13T01:42:50.431Z,99722.92
2019-04-13T01:45:21.143Z,99714.52
2019-04-13T01:47:51.808Z,99726.80
2019-04-13T01:50:22.395Z,99725.89
2019-04-13T01:52:53.067Z,99713.23
2019-04-13T01:55:23.479Z,99710.23
2019-04-13T01:57:54.214Z,99715.79
2019-04-13T02:00:32.771Z,99707.36
2019-04-13T02:03:03.326Z,99715.78
2019-04-13T02:05:46.335Z,99710.66
2019-04-13T02:08:54.228Z,99715.75
2019-04-13T02:11:39.199Z,99723.37
2019-04-13T02:14:10.497Z,99715.74
2019-04-13T02:16:41.520Z,99709.83
2019-04-13T02:19:11.943Z,99718.81
2019-04-13T02:21:44.429Z,99717.06
2019-04-13T02:24:14.988Z,99719.12
2019-04-13T02:26:45.575Z,99711.50
2019-04-13T02:29:16.156Z,99714.06
2019-04-13T02:31:46.617Z,99709.85
2019-04-13T02:34:17.355Z,99706.00
2019-04-13T02:36:47.953Z,99702.58
2019-04-13T02:39:18.486Z,99710.19
2019-04-13T02:41:49.148Z,99703.81
2019-04-13T02:44:19.695Z,99704.64
2019-04-13T02:46:50.044Z,99699.98
2019-04-13T02:49:21.818Z,99714.42
2019-04-13T02:51:54.620Z,99700.87
2019-04-13T02:54:27.561Z,99696.61
2019-04-13T02:56:57.966Z,99704.66
2019-04-13T02:59:28.782Z,99703.37
2019-04-13T03:02:00.600Z,99699.95
2019-04-13T03:04:32.641Z,99702.93
2019-04-13T03:07:03.488Z,99695.75
2019-04-13T03:09:33.865Z,99699.52
2019-04-13T03:12:06.694Z,99695.70
2019-04-13T03:14:38.207Z,99701.64
2019-04-13T03:17:27.586Z,99698.30
2019-04-13T03:20:01.509Z,99683.86
2019-04-13T03:22:33.696Z,99686.45
2019-04-13T03:25:05.980Z,99678.39
2019-04-13T03:27:38.724Z,99688.13
2019-04-13T03:30:12.320Z,99674.58
2019-04-13T03:32:42.883Z,99675.83
2019-04-13T03:35:14.730Z,99678.88
2019-04-13T03:37:46.621Z,99679.70
2019-04-13T03:40:17.270Z,99675.89
2019-04-13T03:42:47.863Z,99672.50
2019-04-13T03:45:18.444Z,99692.80
2019-04-13T03:47:48.835Z,99683.53
2019-04-13T03:50:19.519Z,99676.75
2019-04-13T03:52:50.146Z,99686.42
2019-04-13T03:55:21.964Z,99684.75
2019-04-13T03:57:53.871Z,99675.02
2019-04-13T04:00:24.994Z,99677.92
2019-04-13T04:02:57.191Z,99675.40
2019-04-13T04:05:27.954Z,99675.02
2019-04-13T04:08:00.984Z,99686.80
2019-04-13T04:10:32.900Z,99672.01
2019-04-13T04:13:03.968Z,99692.76
2019-04-13T04:15:35.917Z,99682.14
2019-04-13T04:18:09.019Z,99679.60
2019-04-13T04:20:41.060Z,99680.05
2019-04-13T04:23:11.930Z,99672.84
2019-04-13T04:25:42.433Z,99671.14
2019-04-13T04:28:12.973Z,99662.70
2019-04-13T04:30:43.483Z,99667.38
2019-04-13T04:33:14.132Z,99663.54
2019-04-13T04:35:44.797Z,99666.97
2019-04-13T04:38:15.216Z,99666.58
2019-04-13T04:40:46.133Z,99672.02
2019-04-13T04:43:16.739Z,99659.33
2019-04-13T04:45:47.252Z,99672.42
2019-04-13T04:48:17.931Z,99675.40
2019-04-13T04:50:48.339Z,99670.32
2019-04-13T04:53:18.888Z,99670.78
2019-04-13T04:55:49.330Z,99670.80
2019-04-13T04:58:19.834Z,99667.87
2019-04-13T05:00:51.178Z,99670.78
2019-04-13T05:03:24.398Z,99670.73
2019-04-13T05:05:55.359Z,99678.33
2019-04-13T05:08:28.310Z,99689.80
2019-04-13T05:11:01.274Z,99675.42
2019-04-13T05:13:32.317Z,99674.98
2019-04-13T05:16:04.540Z,99670.84
2019-04-13T05:18:35.325Z,99678.89
2019-04-13T05:21:06.440Z,99675.09
2019-04-13T05:23:37.436Z,99681.05
2019-04-13T05:26:09.445Z,99680.63
2019-04-13T05:28:41.993Z,99684.95
2019-04-13T05:31:12.622Z,99681.03
2019-04-13T05:33:43.252Z,99680.23
2019-04-13T05:36:13.831Z,99676.88
2019-04-13T05:38:44.379Z,99680.72
2019-04-13T05:41:15.034Z,99679.00
2019-04-13T05:43:45.454Z,99689.44
2019-04-13T05:46:16.026Z,99685.66
2019-04-13T05:48:46.636Z,99686.94
2019-04-13T05:51:17.248Z,99694.53
2019-04-13T05:53:47.859Z,99681.86
2019-04-13T05:56:18.402Z,99681.46
2019-04-13T05:58:49.050Z,99686.56
2019-04-13T06:01:19.630Z,99679.34
2019-04-13T06:03:52.808Z,99679.91
2019-04-13T06:06:23.935Z,99684.17
2019-04-13T06:08:54.640Z,99680.72
2019-04-13T06:11:27.639Z,99687.17
2019-04-13T06:14:00.673Z,99689.25
2019-04-13T06:16:30.628Z,99686.27
2019-04-13T06:19:03.632Z,99687.53
2019-04-13T06:21:37.432Z,99693.02
2019-04-13T06:24:10.411Z,99688.83
2019-04-13T06:26:41.445Z,99679.07
2019-04-13T06:29:13.699Z,99679.55
2019-04-13T06:31:59.801Z,99675.38
2019-04-13T06:34:40.700Z,99678.36
2019-04-13T06:37:12.759Z,99682.55
2019-04-13T06:39:43.654Z,99682.97
2019-04-13T06:42:16.325Z,99681.70
2019-04-13T06:44:47.610Z,99686.39
2019-04-13T06:47:20.829Z,99682.61
2019-04-13T06:49:51.876Z,99693.66
2019-04-13T06:52:22.676Z,99695.37
2019-04-13T06:54:55.769Z,99700.02
2019-04-13T06:57:29.061Z,99701.73
2019-04-13T07:00:02.459Z,99699.62
2019-04-13T07:02:33.845Z,99699.62
2019-04-13T07:05:05.117Z,99698.35
2019-04-13T07:08:11.005Z,99706.41
2019-04-13T07:11:03.763Z,99693.70
2019-04-13T07:13:49.136Z,99706.01
2019-04-13T07:16:25.609Z,99694.13
2019-04-13T07:18:55.992Z,99697.52
2019-04-13T07:21:26.895Z,99711.09
2019-04-13T07:23:58.682Z,99708.97
2019-04-13T07:26:29.957Z,99711.94
2019-04-13T07:29:01.101Z,99711.52
2019-04-13T07:31:33.691Z,99710.69
2019-04-13T07:34:04.057Z,99701.74
2019-04-13T07:36:36.035Z,99713.20
2019-04-13T07:39:07.771Z,99730.99
2019-04-13T07:41:40.079Z,99711.88
2019-04-13T07:44:18.288Z,99716.94
2019-04-13T07:47:07.348Z,99714.38
2019-04-13T07:49:54.911Z,99714.80
2019-04-13T07:52:35.034Z,99710.20
2019-04-13T07:55:07.178Z,99709.34
2019-04-13T07:57:38.006Z,99705.89
2019-04-13T08:00:11.291Z,99709.63
2019-04-13T08:02:43.239Z,99714.44
2019-04-13T08:05:16.247Z,99704.27
2019-04-13T08:07:50.304Z,99712.37
2019-04-13T08:10:21.747Z,99711.46
2019-04-13T08:12:53.078Z,99708.12
2019-04-13T08:15:28.011Z,99709.80
2019-04-13T08:17:58.495Z,99708.50
2019-04-13T08:20:34.209Z,99701.69
2019-04-13T08:23:05.262Z,99714.88
2019-04-13T08:25:46.103Z,99712.75
2019-04-13T08:28:17.203Z,99710.18
2019-04-13T08:30:49.381Z,99730.08
2019-04-13T08:33:22.283Z,99710.97
2019-04-13T08:35:58.065Z,99729.59
2019-04-13T08:38:30.860Z,99727.05
2019-04-13T08:41:10.833Z,99715.03
2019-04-13T08:43:33.610Z,99713.22
2019-04-13T08:46:04.351Z,99717.53
2019-04-13T08:48:37.462Z,99716.98
2019-04-13T08:51:10.276Z,99713.19
2019-04-13T08:53:41.392Z,99718.34
2019-04-13T08:56:15.913Z,99709.23
2019-04-13T08:58:49.184Z,99725.02
2019-04-13T09:01:22.424Z,99721.99
2019-04-13T09:03:53.446Z,99714.80
2019-04-13T09:06:25.486Z,99711.73
2019-04-13T09:08:56.368Z,99707.12
2019-04-13T09:11:28.895Z,99701.09
2019-04-13T09:14:05.617Z,99708.19
2019-04-13T09:16:35.287Z,99705.11
2019-04-13T09:19:41.560Z,99702.00
2019-04-13T09:22:22.468Z,99702.26
2019-04-13T09:24:54.483Z,99697.00
2019-04-13T09:27:27.422Z,99691.70
2019-04-13T09:29:57.870Z,99709.97
2019-04-13T09:32:31.398Z,99694.29
2019-04-13T09:35:04.731Z,99697.43
2019-04-13T09:37:35.460Z,99688.87
2019-04-13T09:40:07.562Z,99691.98
2019-04-13T09:42:40.491Z,99693.34
2019-04-13T09:45:11.293Z,99694.49
2019-04-13T09:47:42.752Z,99695.27
2019-04-13T09:50:15.667Z,99692.47
2019-04-13T09:52:47.670Z,99691.22
2019-04-13T09:55:21.612Z,99687.52
2019-04-13T09:57:52.597Z,99680.08
2019-04-13T10:00:27.850Z,99684.25
2019-04-13T10:02:57.750Z,99684.28
2019-04-13T10:05:30.015Z,99685.77
2019-04-13T10:08:01.042Z,99684.69
2019-04-13T10:10:33.772Z,99682.25
2019-04-13T10:13:12.567Z,99690.23
2019-04-13T10:16:07.772Z,99690.29
2019-04-13T10:18:43.532Z,99678.25
2019-04-13T10:21:15.726Z,99679.93
2019-04-13T10:23:46.762Z,99682.12
2019-04-13T10:26:18.832Z,99671.86
2019-04-13T10:28:50.809Z,99674.22
2019-04-13T10:31:21.443Z,99673.15
2019-04-13T10:33:52.175Z,99670.88
2019-04-13T10:36:22.620Z,99670.29
2019-04-13T10:38:53.228Z,99672.50
2019-04-13T10:41:24.340Z,99679.49
2019-04-13T10:43:59.605Z,99673.30
2019-04-13T10:46:55.913Z,99665.88
2019-04-13T10:49:39.489Z,99661.78
2019-04-13T10:52:13.927Z,99667.79
2019-04-13T10:54:44.817Z,99672.36
2019-04-13T10:57:15.255Z,99667.28
2019-04-13T10:59:46.010Z,99658.52
2019-04-13T11:02:22.118Z,99665.16
2019-04-13T11:04:49.899Z,99654.57
2019-04-13T11:07:20.961Z,99654.45
2019-04-13T11:09:51.862Z,99660.89
2019-04-13T11:12:25.005Z,99654.77
2019-04-13T11:14:57.924Z,99656.81
2019-04-13T11:17:29.745Z,99656.36
2019-04-13T11:20:01.091Z,99651.59
2019-04-13T11:22:33.044Z,99641.05
2019-04-13T11:25:04.209Z,99644.24
2019-04-13T11:27:36.803Z,99644.73
2019-04-13T11:30:08.365Z,99639.12
2019-04-13T11:32:41.240Z,99642.67
2019-04-13T11:35:12.025Z,99640.22
2019-04-13T11:37:44.041Z,99631.48
2019-04-13T11:40:16.484Z,99641.55
2019-04-13T11:43:09.456Z,99641.16
2019-04-13T11:45:59.908Z,99642.57
2019-04-13T11:48:52.092Z,99644.86
2019-04-13T11:51:32.232Z,99650.34
2019-04-13T11:54:04.560Z,99636.34
2019-04-13T11:56:37.143Z,99643.65
2019-04-13T11:59:07.417Z,99627.91
2019-04-13T12:02:13.368Z,99627.44
2019-04-13T12:05:10.723Z,99643.87
2019-04-13T12:07:50.641Z,99637.33
2019-04-13T12:10:40.068Z,99641.62
2019-04-13T12:13:40.180Z,99638.45
2019-04-13T12:16:33.013Z,99634.13
2019-04-13T12:19:27.834Z,99646.61
2019-04-13T12:22:09.218Z,99633.13
2019-04-13T12:24:41.289Z,99632.66
2019-04-13T12:27:13.307Z,99621.47
2019-04-13T12:29:43.699Z,99628.81
2019-04-13T12:32:23.626Z,99624.12
2019-04-13T12:34:53.297Z,99629.64
2019-04-13T12:37:26.325Z,99627.53
2019-04-13T12:40:03.854Z,99633.56
2019-04-13T12:42:36.397Z,99627.16
2019-04-13T12:45:07.594Z,99625.29
2019-04-13T12:47:42.139Z,99625.94
2019-04-13T12:50:11.877Z,99624.99
2019-04-13T12:52:42.538Z,99623.54
2019-04-13T12:55:15.634Z,99616.70
2019-04-13T12:57:49.062Z,99626.78
2019-04-13T13:00:42.533Z,99618.77
2019-04-13T13:03:18.240Z,99614.39
2019-04-13T13:05:52.612Z,99625.23
2019-04-13T13:08:24.643Z,99621.53
2019-04-13T13:10:55.852Z,99617.42
2019-04-13T13:13:28.709Z,99613.71
2019-04-13T13:15:59.655Z,99625.27
2019-04-13T13:18:30.301Z,99616.83
2019-04-13T13:21:02.374Z,99606.27
2019-04-13T13:23:33.511Z,99611.49
2019-04-13T13:26:04.602Z,99606.74
2019-04-13T13:28:37.686Z,99606.29
2019-04-13T13:31:16.920Z,99604.47
2019-04-13T13:33:52.234Z,99593.42
2019-04-13T13:36:53.834Z,99593.06
2019-04-13T13:39:19.861Z,99617.49
2019-04-13T13:41:50.383Z,99594.47
2019-04-13T13:44:20.845Z,99598.74
2019-04-13T13:46:51.655Z,99593.44
2019-04-13T13:49:22.082Z,99594.80
2019-04-13T13:51:56.264Z,99589.23
2019-04-13T13:54:25.730Z,99588.74
2019-04-13T13:56:56.825Z,99585.86
2019-04-13T13:59:27.834Z,99596.66
2019-04-13T14:02:05.618Z,99588.52
2019-04-13T14:04:37.869Z,99587.08
2019-04-13T14:07:10.956Z,99583.62
2019-04-13T14:09:44.222Z,99586.69
2019-04-13T14:12:15.796Z,99587.14
2019-04-13T14:14:48.808Z,99584.21
2019-04-13T14:17:19.899Z,99583.45
2019-04-13T14:19:52.896Z,99591.92
2019-04-13T14:22:24.813Z,99592.45
2019-04-13T14:24:59.544Z,99588.87
2019-04-13T14:27:30.978Z,99577.38
2019-04-13T14:30:01.899Z,99585.09
2019-04-13T14:32:32.622Z,99584.76
2019-04-13T14:35:03.406Z,99584.95
2019-04-13T14:37:37.081Z,99583.24
2019-04-13T14:40:10.248Z,99580.27
2019-04-13T14:42:45.283Z,99582.52
2019-04-13T14:45:14.313Z,99584.83
2019-04-13T14:47:45.087Z,99579.75
2019-04-13T14:50:16.037Z,99581.99
2019-04-13T14:52:46.452Z,99580.59
2019-04-13T14:55:17.148Z,99583.68
2019-04-13T14:57:49.021Z,99584.09
2019-04-13T15:00:21.452Z,99599.27
2019-04-13T15:02:53.193Z,99583.36
2019-04-13T15:05:24.051Z,99587.38
2019-04-13T15:07:55.834Z,99580.44
2019-04-13T15:10:26.295Z,99581.72
2019-04-13T15:12:57.024Z,99582.03
2019-04-13T15:15:28.650Z,99575.98
2019-04-13T15:18:17.080Z,99581.80
2019-04-13T15:20:48.157Z,99580.67
2019-04-13T15:23:21.344Z,99576.56
2019-04-13T15:25:53.259Z,99585.24
2019-04-13T15:28:30.122Z,99582.45
2019-04-13T15:31:01.851Z,99585.44
2019-04-13T15:33:32.765Z,99580.28
2019-04-13T15:36:07.590Z,99578.27
2019-04-13T15:38:38.158Z,99584.94
2019-04-13T15:41:12.465Z,99588.64
2019-04-13T15:43:43.250Z,99583.65
2019-04-13T15:46:17.584Z,99591.20
2019-04-13T15:48:49.597Z,99587.83
2019-04-13T15:51:20.324Z,99580.20
2019-04-13T15:53:51.732Z,99581.27
2019-04-13T15:56:24.463Z,99586.58
2019-04-13T15:58:55.412Z,99581.17
2019-04-13T16:01:28.322Z,99590.44
2019-04-13T16:04:01.286Z,99580.65
2019-04-13T16:06:33.694Z,99590.80
2019-04-13T16:09:16.762Z,99593.06
2019-04-13T16:11:57.081Z,99587.69
2019-04-13T16:14:26.681Z,99581.89
2019-04-13T16:16:58.942Z,99590.23
2019-04-13T16:19:30.877Z,99586.58
2019-04-13T16:22:02.509Z,99590.14
2019-04-13T16:24:35.100Z,99591.14
2019-04-13T16:27:07.896Z,99588.80
2019-04-13T16:30:07.001Z,99593.75
2019-04-13T16:32:59.828Z,99595.22
2019-04-13T16:35:36.969Z,99585.91
2019-04-13T16:38:07.503Z,99589.89
2019-04-13T16:40:41.562Z,99596.94
2019-04-13T16:43:15.819Z,99605.67
2019-04-13T16:46:01.492Z,99604.02
2019-04-13T16:48:44.888Z,99595.52
2019-04-13T16:51:34.968Z,99594.35
2019-04-13T16:54:23.371Z,99593.67
2019-04-13T16:57:00.157Z,99612.00
2019-04-13T16:59:51.274Z,99595.10
2019-04-13T17:02:40.959Z,99595.55
2019-04-13T17:05:15.966Z,99597.73
2019-04-13T17:07:46.937Z,99602.85
2019-04-13T17:10:19.343Z,99598.17
2019-04-13T17:12:54.451Z,99601.16
2019-04-13T17:15:25.183Z,99616.05
2019-04-13T17:17:55.706Z,99602.91
2019-04-13T17:20:47.706Z,99607.58
2019-04-13T17:23:54.677Z,99603.78
2019-04-13T17:26:56.498Z,99611.84
2019-04-13T17:29:58.808Z,99606.36
2019-04-13T17:32:48.333Z,99618.21
2019-04-13T17:35:24.347Z,99615.66
2019-04-13T17:37:59.035Z,99616.52
2019-04-13T17:40:34.776Z,99623.30
2019-04-13T17:43:25.152Z,99627.13
2019-04-13T17:46:22.109Z,99636.03
2019-04-13T17:49:11.483Z,99631.80
2019-04-13T17:52:02.740Z,99635.61
2019-04-13T17:54:56.336Z,99640.67
2019-04-13T17:57:49.485Z,99641.52
2019-04-13T18:00:51.744Z,99655.05
2019-04-13T18:03:47.162Z,99649.55
2019-04-13T18:06:36.292Z,99653.77
2019-04-13T18:09:32.963Z,99649.51
2019-04-13T18:12:46.858Z,99649.94
2019-04-13T18:15:30.878Z,99662.64
2019-04-13T18:18:06.221Z,99665.14
2019-04-13T18:20:38.565Z,99664.30
2019-04-13T18:23:13.159Z,99672.72
2019-04-13T18:25:50.953Z,99672.70
2019-04-13T18:28:19.219Z,99678.63
2019-04-13T18:30:58.055Z,99680.73
2019-04-13T18:33:30.493Z,99675.17
2019-04-13T18:36:04.870Z,99689.10
2019-04-13T18:38:38.157Z,99688.23
2019-04-13T18:41:10.184Z,99690.31
2019-04-13T18:43:43.253Z,99689.05
2019-04-13T18:46:15.459Z,99701.70
2019-04-13T18:48:46.677Z,99701.70
2019-04-13T18:51:19.134Z,99696.20
2019-04-13T18:53:50.630Z,99697.86
2019-04-13T18:56:21.192Z,99700.40
2019-04-13T18:58:52.658Z,99700.79
2019-04-13T19:01:26.500Z,99704.58
2019-04-13T19:03:58.492Z,99702.47
2019-04-13T19:06:29.330Z,99706.25
2019-04-13T19:09:02.359Z,99709.24
2019-04-13T19:11:33.161Z,99712.16
2019-04-13T19:14:05.239Z,99707.14
2019-04-13T19:16:37.305Z,99708.36
2019-04-13T19:19:08.223Z,99710.09
2019-04-13T19:21:39.581Z,99711.36
2019-04-13T19:24:12.503Z,99705.47
2019-04-13T19:26:43.302Z,99704.11
2019-04-13T19:29:21.148Z,99709.66
2019-04-13T19:31:53.494Z,99704.20
2019-04-13T19:34:27.101Z,99701.66
2019-04-13T19:36:57.565Z,99700.78
2019-04-13T19:39:28.433Z,99696.64
2019-04-13T19:41:59.057Z,99704.67
2019-04-13T19:44:29.786Z,99702.97
2019-04-13T19:47:00.366Z,99698.77
2019-04-13T19:49:31.026Z,99697.06
2019-04-13T19:52:18.770Z,99691.48
2019-04-13T19:54:49.438Z,99690.70
2019-04-13T19:57:20.434Z,99689.80
2019-04-13T19:59:51.458Z,99684.72
2019-04-13T20:02:26.620Z,99692.78
2019-04-13T20:04:58.568Z,99691.51
2019-04-13T20:07:31.398Z,99687.26
2019-04-13T20:10:04.708Z,99686.89
2019-04-13T20:12:36.395Z,99687.71
2019-04-13T20:15:07.597Z,99681.37
2019-04-13T20:17:40.692Z,99685.66
2019-04-13T20:20:13.883Z,99682.20
2019-04-13T20:22:46.358Z,99681.39
2019-04-13T20:25:17.773Z,99685.18
2019-04-13T20:27:49.781Z,99686.47
2019-04-13T20:30:21.610Z,99679.70
2019-04-13T20:32:53.655Z,99691.13
2019-04-13T20:35:25.880Z,99691.15
2019-04-13T20:37:57.705Z,99689.94
2019-04-13T20:40:36.010Z,99686.11
2019-04-13T20:43:09.648Z,99678.02
2019-04-13T20:45:40.861Z,99685.62
2019-04-13T20:48:11.893Z,99684.73
2019-04-13T20:50:43.463Z,99682.25
2019-04-13T20:53:16.093Z,99692.84
2019-04-13T20:55:47.815Z,99682.23
2019-04-13T20:58:20.394Z,99684.27
2019-04-13T21:00:55.310Z,99679.19
2019-04-13T21:03:27.420Z,99680.02
2019-04-13T21:06:00.088Z,99680.05
2019-04-13T21:08:32.756Z,99680.89
2019-04-13T21:11:05.463Z,99680.84
2019-04-13T21:13:38.231Z,99685.47
2019-04-13T21:16:10.615Z,99675.78
2019-04-13T21:18:42.820Z,99680.86
2019-04-13T21:21:15.365Z,99676.19
2019-04-13T21:23:49.545Z,99672.78
2019-04-13T21:26:25.075Z,99670.25
2019-04-13T21:28:56.353Z,99674.13
2019-04-13T21:31:28.275Z,99666.52
2019-04-13T21:33:58.697Z,99664.81
2019-04-13T21:36:32.714Z,99668.08
2019-04-13T21:39:07.335Z,99672.37
2019-04-13T21:41:38.965Z,99662.61
2019-04-13T21:44:19.904Z,99658.83
2019-04-13T21:46:44.517Z,99661.73
2019-04-13T21:49:16.444Z,99653.75
2019-04-13T21:51:58.307Z,99659.66
2019-04-13T21:54:34.132Z,99658.39
2019-04-13T21:57:06.689Z,99657.09
2019-04-13T21:59:39.120Z,99654.95
2019-04-13T22:02:33.106Z,99654.15
2019-04-13T22:05:05.687Z,99657.47
2019-04-13T22:07:37.682Z,99654.91
2019-04-13T22:10:09.405Z,99654.52
2019-04-13T22:12:41.779Z,99653.25
2019-04-13T22:15:15.225Z,99658.76
2019-04-13T22:17:46.534Z,99648.66
2019-04-13T22:20:16.950Z,99659.66
2019-04-13T22:22:49.682Z,99654.97
2019-04-13T22:25:23.100Z,99654.58
2019-04-13T22:28:02.292Z,99654.54
2019-04-13T22:30:29.833Z,99644.87
2019-04-13T22:33:02.499Z,99647.81
2019-04-13T22:35:45.509Z,99639.39
2019-04-13T22:38:17.625Z,99647.86
2019-04-13T22:40:48.060Z,99645.67
2019-04-13T22:43:19.700Z,99649.09
2019-04-13T22:45:53.548Z,99644.86
2019-04-13T22:48:40.721Z,99654.19
2019-04-13T22:51:29.418Z,99643.64
2019-04-13T22:54:18.850Z,99640.62
2019-04-13T22:56:57.416Z,99639.33
2019-04-13T22:59:29.866Z,99633.45
2019-04-13T23:02:10.484Z,99635.98
2019-04-13T23:04:42.918Z,99640.20
2019-04-13T23:07:15.884Z,99632.16
2019-04-13T23:09:49.658Z,99626.70
2019-04-13T23:12:20.387Z,99627.16
2019-04-13T23:14:59.695Z,99628.41
2019-04-13T23:17:24.475Z,99630.09
2019-04-13T23:19:54.875Z,99632.20
2019-04-13T23:22:25.792Z,99632.57
2019-04-13T23:24:58.921Z,99629.16
2019-04-13T23:27:30.833Z,99624.12
2019-04-13T23:30:03.090Z,99611.91
2019-04-13T23:32:33.972Z,99614.84
2019-04-13T23:35:06.428Z,99614.84
2019-04-13T23:37:40.969Z,99620.76
2019-04-13T23:40:13.605Z,99612.31
2019-04-13T23:42:46.149Z,99614.41
2019-04-13T23:45:26.894Z,99608.52
2019-04-13T23:47:56.070Z,99610.25
2019-04-13T23:50:28.999Z,99610.67
2019-04-13T23:53:00.931Z,99600.91
2019-04-13T23:55:48.700Z,99600.91
2019-04-13T23:58:43.259Z,99603.83
